createdAt,value
2022-08-25T00:01:26.990Z,3.58
2022-08-25T00:03:58.926Z,3.92
2022-08-25T00:06:27.755Z,4.03
2022-08-25T00:08:59.583Z,4.00
2022-08-25T00:11:30.143Z,3.72
2022-08-25T00:14:01.999Z,3.95
2022-08-25T00:16:31.434Z,3.90
2022-08-25T00:19:03.398Z,3.55
2022-08-25T00:21:32.600Z,4.05
2022-08-25T00:24:02.269Z,3.83
2022-08-25T00:26:31.207Z,3.60
2022-08-25T00:29:01.602Z,3.75
2022-08-25T00:31:38.413Z,4.00
2022-08-25T00:34:11.174Z,3.63
2022-08-25T00:36:40.077Z,3.65
2022-08-25T00:39:09.933Z,3.72
2022-08-25T00:41:39.632Z,3.72
2022-08-25T00:44:10.665Z,3.70
2022-08-25T00:46:40.927Z,4.30
2022-08-25T00:49:25.056Z,3.90
2022-08-25T00:52:00.293Z,3.92
2022-08-25T00:54:30.934Z,4.47
2022-08-25T00:57:00.394Z,3.92
2022-08-25T00:59:29.105Z,3.58
2022-08-25T01:01:58.932Z,4.00
2022-08-25T01:04:28.662Z,4.10
2022-08-25T01:06:59.302Z,3.95
2022-08-25T01:09:27.669Z,4.00
2022-08-25T01:11:55.941Z,4.05
2022-08-25T01:14:27.083Z,3.60
2022-08-25T01:16:55.354Z,3.95
2022-08-25T01:19:23.401Z,4.35
2022-08-25T01:21:55.033Z,4.28
2022-08-25T01:24:29.648Z,4.30
2022-08-25T01:26:57.963Z,4.50
2022-08-25T01:29:26.461Z,4.15
2022-08-25T01:32:00.792Z,4.03
2022-08-25T01:34:49.073Z,4.38
2022-08-25T01:37:21.698Z,4.15
2022-08-25T01:40:05.288Z,4.35
2022-08-25T01:43:09.672Z,4.30
2022-08-25T01:45:39.154Z,3.92
2022-08-25T01:51:02.498Z,4.15
2022-08-25T01:53:35.229Z,4.20
2022-08-25T01:56:12.860Z,4.38
2022-08-25T01:59:23.847Z,4.20
2022-08-25T02:01:59.661Z,4.65
2022-08-25T02:04:29.559Z,4.30
2022-08-25T02:06:57.735Z,4.82
2022-08-25T02:09:27.185Z,4.20
2022-08-25T02:11:56.745Z,4.30
2022-08-25T02:17:46.309Z,4.50
2022-08-25T02:20:14.358Z,4.88
2022-08-25T02:22:43.433Z,4.78
2022-08-25T02:25:21.444Z,4.35
2022-08-25T02:27:49.502Z,4.90
2022-08-25T02:30:18.184Z,4.70
2022-08-25T02:32:46.291Z,4.38
2022-08-25T02:35:14.634Z,4.60
2022-08-25T02:37:42.728Z,4.65
2022-08-25T02:40:11.958Z,4.53
2022-08-25T02:42:42.783Z,5.13
2022-08-25T02:45:11.078Z,4.90
2022-08-25T02:47:39.186Z,4.75
2022-08-25T02:50:08.546Z,4.93
2022-08-25T02:52:37.097Z,5.20
2022-08-25T02:55:07.422Z,4.97
2022-08-25T02:57:35.835Z,4.80
2022-08-25T03:00:06.960Z,4.53
2022-08-25T03:02:35.123Z,5.00
2022-08-25T03:05:03.267Z,5.10
2022-08-25T03:07:31.412Z,5.18
2022-08-25T03:10:07.787Z,4.93
2022-08-25T03:12:35.870Z,4.97
2022-08-25T03:15:09.295Z,5.10
2022-08-25T03:17:44.458Z,5.50
2022-08-25T03:20:14.527Z,5.60
2022-08-25T03:22:43.115Z,5.55
2022-08-25T03:25:29.237Z,5.60
2022-08-25T03:27:57.367Z,5.43
2022-08-25T03:30:27.288Z,5.50
2022-08-25T03:32:55.471Z,4.93
2022-08-25T03:35:23.729Z,5.25
2022-08-25T03:37:52.245Z,5.45
2022-08-25T03:40:20.837Z,5.15
2022-08-25T03:42:48.951Z,5.68
2022-08-25T03:45:20.894Z,5.60
2022-08-25T03:47:51.578Z,5.47
2022-08-25T03:50:21.541Z,5.38
2022-08-25T03:52:53.801Z,5.32
2022-08-25T03:55:23.921Z,5.50
2022-08-25T03:57:52.051Z,5.10
2022-08-25T04:00:20.882Z,5.50
2022-08-25T04:02:50.657Z,5.88
2022-08-25T04:05:20.292Z,5.85
2022-08-25T04:07:48.439Z,5.57
2022-08-25T04:10:16.834Z,5.28
2022-08-25T04:12:45.351Z,5.45
2022-08-25T04:15:13.530Z,5.53
2022-08-25T04:17:42.061Z,6.07
2022-08-25T04:20:14.072Z,5.43
2022-08-25T04:22:44.859Z,5.82
2022-08-25T04:25:14.191Z,6.15
2022-08-25T04:27:42.551Z,5.95
2022-08-25T04:30:12.077Z,6.20
2022-08-25T04:32:40.731Z,5.63
2022-08-25T04:35:09.614Z,5.70
2022-08-25T04:37:39.101Z,5.47
2022-08-25T04:40:08.506Z,5.97
2022-08-25T04:42:37.001Z,6.15
2022-08-25T04:45:06.201Z,6.55
2022-08-25T04:47:38.232Z,6.15
2022-08-25T04:50:07.772Z,7.07
2022-08-25T04:52:35.755Z,6.10
2022-08-25T04:55:05.841Z,5.97
2022-08-25T04:57:36.018Z,6.15
2022-08-25T05:00:05.876Z,6.97
2022-08-25T05:02:33.892Z,6.88
2022-08-25T05:05:04.014Z,6.82
2022-08-25T05:07:32.024Z,7.47
2022-08-25T05:10:00.414Z,7.07
2022-08-25T05:12:30.044Z,6.60
2022-08-25T05:15:21.883Z,6.55
2022-08-25T05:17:53.947Z,7.30
2022-08-25T05:20:24.153Z,7.43
2022-08-25T05:22:52.518Z,7.93
2022-08-25T05:25:20.665Z,7.32
2022-08-25T05:27:50.190Z,7.07
2022-08-25T05:30:18.494Z,6.40
2022-08-25T05:32:46.666Z,7.35
2022-08-25T05:35:15.569Z,7.65
2022-08-25T05:37:44.018Z,7.47
2022-08-25T05:40:12.249Z,7.20
2022-08-25T05:42:40.425Z,7.05
2022-08-25T05:45:16.658Z,7.28
2022-08-25T05:47:48.908Z,7.78
2022-08-25T05:50:17.687Z,8.10
2022-08-25T05:52:46.714Z,7.93
2022-08-25T05:55:15.661Z,8.27
2022-08-25T05:57:43.903Z,7.82
2022-08-25T06:00:14.525Z,7.50
2022-08-25T06:02:43.660Z,7.88
2022-08-25T06:05:13.683Z,7.70
2022-08-25T06:07:41.777Z,8.25
2022-08-25T06:10:11.956Z,8.00
2022-08-25T06:12:42.242Z,8.10
2022-08-25T06:15:14.348Z,8.35
2022-08-25T06:17:43.122Z,9.10
2022-08-25T06:20:14.260Z,8.18
2022-08-25T06:22:43.138Z,9.15
2022-08-25T06:25:13.058Z,8.48
2022-08-25T06:27:41.547Z,9.02
2022-08-25T06:30:12.831Z,8.85
2022-08-25T06:32:47.076Z,9.20
2022-08-25T06:35:19.109Z,8.68
2022-08-25T06:37:48.141Z,8.77
2022-08-25T06:40:17.071Z,8.57
2022-08-25T06:42:49.959Z,8.98
2022-08-25T06:45:19.387Z,8.80
2022-08-25T06:47:48.917Z,9.10
2022-08-25T06:50:16.941Z,8.57
2022-08-25T06:52:44.948Z,9.00
2022-08-25T06:55:13.072Z,9.45
2022-08-25T06:57:41.179Z,9.93
2022-08-25T07:00:10.874Z,9.05
2022-08-25T07:02:40.652Z,9.43
2022-08-25T07:05:17.087Z,9.32
2022-08-25T07:07:54.928Z,9.27
2022-08-25T07:10:23.180Z,8.93
2022-08-25T07:12:51.831Z,9.73
2022-08-25T07:15:20.901Z,9.52
2022-08-25T07:17:50.631Z,9.68
2022-08-25T07:20:20.816Z,10.10
2022-08-25T07:22:49.527Z,9.65
2022-08-25T07:25:18.064Z,9.85
2022-08-25T07:27:46.917Z,9.13
2022-08-25T07:30:15.255Z,9.77
2022-08-25T07:32:43.481Z,8.38
2022-08-25T07:35:18.862Z,8.93
2022-08-25T07:37:50.714Z,9.70
2022-08-25T07:40:23.048Z,8.82
2022-08-25T07:42:53.560Z,8.60
2022-08-25T07:45:29.637Z,9.55
2022-08-25T07:47:58.368Z,9.52
2022-08-25T07:50:26.994Z,8.25
2022-08-25T07:52:56.748Z,8.65
2022-08-25T07:55:27.160Z,8.73
2022-08-25T07:57:57.386Z,8.80
2022-08-25T08:00:28.021Z,8.60
2022-08-25T08:02:56.620Z,9.23
2022-08-25T08:05:24.974Z,9.05
2022-08-25T08:07:53.173Z,8.75
2022-08-25T08:13:18.054Z,8.82
2022-08-25T08:15:47.557Z,8.07
2022-08-25T08:18:16.051Z,7.65
2022-08-25T08:20:45.522Z,7.95
2022-08-25T08:23:13.720Z,8.27
2022-08-25T08:25:43.199Z,8.18
2022-08-25T08:28:11.367Z,7.80
2022-08-25T08:30:39.473Z,7.75
2022-08-25T08:33:11.232Z,8.60
2022-08-25T08:35:40.887Z,8.52
2022-08-25T08:38:14.421Z,8.10
2022-08-25T08:41:22.038Z,7.97
2022-08-25T08:43:57.588Z,7.63
2022-08-25T08:46:27.926Z,7.82
2022-08-25T08:49:02.981Z,7.85
2022-08-25T08:51:39.316Z,8.55
2022-08-25T08:54:15.045Z,7.30
2022-08-25T08:56:49.746Z,8.10
2022-08-25T08:59:21.493Z,7.90
2022-08-25T09:01:54.480Z,7.68
2022-08-25T09:04:28.791Z,7.65
2022-08-25T09:06:58.660Z,7.28
2022-08-25T09:09:30.770Z,7.82
2022-08-25T09:12:12.858Z,7.35
2022-08-25T09:14:58.421Z,7.07
2022-08-25T09:17:43.928Z,8.07
2022-08-25T09:20:49.767Z,7.50
2022-08-25T09:23:32.685Z,8.00
2022-08-25T09:26:09.015Z,7.07
2022-08-25T09:28:44.553Z,7.55
2022-08-25T09:31:26.361Z,7.07
2022-08-25T09:33:59.201Z,7.07
2022-08-25T09:36:28.676Z,6.78
2022-08-25T09:38:57.172Z,6.93
2022-08-25T09:41:43.097Z,6.63
2022-08-25T09:44:21.883Z,6.95
2022-08-25T09:47:02.197Z,6.57
2022-08-25T09:49:37.962Z,6.43
2022-08-25T09:52:25.523Z,6.60
2022-08-25T09:54:54.896Z,6.43
2022-08-25T09:57:32.233Z,6.63
2022-08-25T10:00:17.437Z,6.82
2022-08-25T10:02:47.108Z,6.97
2022-08-25T10:05:22.905Z,5.75
2022-08-25T10:07:55.677Z,7.07
2022-08-25T10:10:32.237Z,6.75
2022-08-25T10:13:03.531Z,6.55
2022-08-25T10:15:38.769Z,6.60
2022-08-25T10:18:22.110Z,5.78
2022-08-25T10:21:07.590Z,5.72
2022-08-25T10:23:39.133Z,5.53
2022-08-25T10:26:14.386Z,6.50
2022-08-25T10:28:55.144Z,5.07
2022-08-25T10:31:34.660Z,5.63
2022-08-25T10:34:14.141Z,5.72
2022-08-25T10:36:54.038Z,5.50
2022-08-25T10:39:36.703Z,5.28
2022-08-25T10:42:33.264Z,5.07
2022-08-25T10:45:38.403Z,5.50
2022-08-25T10:48:35.693Z,6.10
2022-08-25T10:51:25.305Z,5.65
2022-08-25T10:54:06.306Z,5.28
2022-08-25T10:56:40.730Z,5.88
2022-08-25T10:59:43.535Z,6.03
2022-08-25T11:02:38.335Z,5.47
2022-08-25T11:05:16.641Z,5.90
2022-08-25T11:07:59.183Z,6.20
2022-08-25T11:10:40.967Z,5.28
2022-08-25T11:13:15.747Z,5.30
2022-08-25T11:16:16.103Z,5.43
2022-08-25T11:18:49.291Z,5.75
2022-08-25T11:21:26.157Z,5.68
2022-08-25T11:24:00.133Z,5.63
2022-08-25T11:26:36.949Z,4.93
2022-08-25T11:29:12.050Z,5.75
2022-08-25T11:31:48.342Z,5.55
2022-08-25T11:34:22.543Z,5.90
2022-08-25T11:36:56.376Z,5.45
2022-08-25T11:39:37.464Z,5.20
2022-08-25T11:42:19.260Z,5.55
2022-08-25T11:44:55.689Z,5.05
2022-08-25T11:47:41.933Z,5.18
2022-08-25T11:50:29.895Z,4.88
2022-08-25T11:53:04.202Z,4.93
2022-08-25T11:55:51.018Z,5.57
2022-08-25T11:58:31.739Z,5.30
2022-08-25T12:01:01.652Z,4.88
2022-08-25T12:04:12.578Z,5.05
2022-08-25T12:07:32.217Z,5.70
2022-08-25T12:10:26.883Z,5.88
2022-08-25T12:13:04.847Z,5.43
2022-08-25T12:16:00.511Z,5.55
2022-08-25T12:18:46.355Z,5.43
2022-08-25T12:21:31.351Z,5.70
2022-08-25T12:24:17.543Z,5.78
2022-08-25T12:26:56.434Z,6.03
2022-08-25T12:29:42.331Z,5.72
2022-08-25T12:32:46.369Z,5.80
2022-08-25T12:35:27.203Z,5.57
2022-08-25T12:38:02.559Z,6.07
2022-08-25T12:40:35.660Z,5.40
2022-08-25T12:43:09.837Z,5.80
2022-08-25T12:45:46.803Z,6.22
2022-08-25T12:48:57.970Z,5.88
2022-08-25T12:51:28.216Z,5.45
2022-08-25T12:54:05.444Z,5.40
2022-08-25T12:56:39.484Z,5.78
2022-08-25T12:59:18.446Z,6.00
2022-08-25T13:02:12.474Z,5.50
2022-08-25T13:05:18.924Z,5.80
2022-08-25T13:08:02.451Z,6.28
2022-08-25T13:10:47.207Z,5.85
2022-08-25T13:13:23.756Z,6.25
2022-08-25T13:16:02.348Z,5.72
2022-08-25T13:18:32.856Z,5.55
2022-08-25T13:21:08.585Z,5.72
2022-08-25T13:23:42.059Z,6.38
2022-08-25T13:26:13.599Z,5.82
2022-08-25T13:28:50.367Z,5.72
2022-08-25T13:31:22.625Z,5.50
2022-08-25T13:33:54.877Z,5.82
2022-08-25T13:36:47.065Z,5.05
2022-08-25T13:39:45.532Z,5.75
2022-08-25T13:42:16.185Z,5.97
2022-08-25T13:44:52.026Z,5.80
2022-08-25T13:47:43.712Z,6.35
2022-08-25T13:50:26.437Z,5.90
2022-08-25T13:52:58.122Z,5.95
2022-08-25T13:55:31.003Z,5.75
2022-08-25T13:58:14.463Z,6.00
2022-08-25T14:00:46.469Z,5.68
2022-08-25T14:06:20.594Z,5.78
2022-08-25T14:09:08.096Z,6.05
2022-08-25T14:11:46.572Z,5.90
2022-08-25T14:14:32.184Z,6.22
2022-08-25T14:17:21.806Z,6.10
2022-08-25T14:19:55.444Z,6.18
2022-08-25T14:22:25.677Z,6.10
2022-08-25T14:24:55.423Z,6.32
2022-08-25T14:27:23.992Z,5.57
2022-08-25T14:29:53.008Z,5.57
2022-08-25T14:32:21.531Z,6.35
2022-08-25T14:34:50.163Z,6.13
2022-08-25T14:37:25.322Z,6.28
2022-08-25T14:39:55.603Z,6.07
2022-08-25T14:42:26.230Z,6.53
2022-08-25T14:44:54.796Z,6.55
2022-08-25T14:47:25.459Z,6.40
2022-08-25T14:49:53.874Z,5.80
2022-08-25T14:52:26.821Z,5.82
2022-08-25T14:54:57.273Z,6.55
2022-08-25T14:57:25.642Z,6.47
2022-08-25T14:59:54.224Z,6.78
2022-08-25T15:02:29.506Z,6.50
2022-08-25T15:05:02.232Z,6.65
2022-08-25T15:07:49.475Z,6.30
2022-08-25T15:10:19.522Z,6.93
2022-08-25T15:12:53.848Z,6.60
2022-08-25T15:15:26.370Z,7.03
2022-08-25T15:17:59.303Z,6.43
2022-08-25T15:20:29.422Z,6.32
2022-08-25T15:22:59.183Z,6.97
2022-08-25T15:25:29.215Z,6.70
2022-08-25T15:27:58.416Z,6.60
2022-08-25T15:30:31.195Z,7.25
2022-08-25T15:32:59.805Z,6.85
2022-08-25T15:35:29.272Z,6.97
2022-08-25T15:37:57.802Z,6.45
2022-08-25T15:40:26.412Z,6.95
2022-08-25T15:42:56.356Z,6.93
2022-08-25T15:45:24.636Z,6.82
2022-08-25T15:47:53.973Z,7.20
2022-08-25T15:50:26.061Z,6.47
2022-08-25T15:52:54.812Z,6.03
2022-08-25T15:55:23.247Z,7.20
2022-08-25T15:57:51.924Z,6.63
2022-08-25T16:00:22.087Z,6.57
2022-08-25T16:02:50.852Z,6.38
2022-08-25T16:05:25.135Z,6.88
2022-08-25T16:07:54.322Z,6.47
2022-08-25T16:10:22.721Z,6.80
2022-08-25T16:12:51.895Z,7.25
2022-08-25T16:15:24.051Z,6.75
2022-08-25T16:17:57.130Z,7.15
2022-08-25T16:20:26.563Z,7.22
2022-08-25T16:22:54.834Z,6.65
2022-08-25T16:25:23.960Z,6.82
2022-08-25T16:27:52.366Z,7.35
2022-08-25T16:30:22.464Z,7.75
2022-08-25T16:32:50.786Z,9.20
2022-08-25T16:35:19.293Z,7.82
2022-08-25T16:37:48.709Z,7.35
2022-08-25T16:40:19.114Z,7.47
2022-08-25T16:42:48.488Z,6.85
2022-08-25T16:45:17.727Z,7.38
2022-08-25T16:47:47.530Z,7.60
2022-08-25T16:50:16.931Z,7.13
2022-08-25T16:53:02.934Z,7.15
2022-08-25T16:55:39.337Z,7.75
2022-08-25T16:58:08.846Z,8.02
2022-08-25T17:00:41.882Z,7.72
2022-08-25T17:03:14.651Z,8.13
2022-08-25T17:05:44.670Z,7.47
2022-08-25T17:08:31.711Z,7.43
2022-08-25T17:11:09.225Z,8.00
2022-08-25T17:13:38.923Z,8.50
2022-08-25T17:16:13.390Z,7.65
2022-08-25T17:18:47.876Z,7.50
2022-08-25T17:21:23.934Z,7.93
2022-08-25T17:23:54.161Z,8.07
2022-08-25T17:26:27.703Z,8.73
2022-08-25T17:28:57.602Z,7.53
2022-08-25T17:31:29.993Z,7.78
2022-08-25T17:34:00.682Z,7.47
2022-08-25T17:36:29.433Z,7.32
2022-08-25T17:38:57.695Z,8.15
2022-08-25T17:41:26.476Z,8.05
2022-08-25T17:43:54.766Z,8.40
2022-08-25T17:46:27.412Z,8.20
2022-08-25T17:48:56.064Z,7.63
2022-08-25T17:51:25.845Z,8.05
2022-08-25T17:53:54.431Z,7.90
2022-08-25T17:56:25.911Z,8.38
2022-08-25T17:58:56.881Z,8.00
2022-08-25T18:01:28.199Z,8.45
2022-08-25T18:03:57.441Z,7.95
2022-08-25T18:06:29.606Z,8.45
2022-08-25T18:09:01.547Z,8.02
2022-08-25T18:11:31.669Z,9.25
2022-08-25T18:14:01.006Z,8.70
2022-08-25T18:16:31.363Z,8.25
2022-08-25T18:18:59.771Z,8.25
2022-08-25T18:21:31.839Z,8.32
2022-08-25T18:24:01.787Z,8.10
2022-08-25T18:26:30.933Z,8.65
2022-08-25T18:29:00.329Z,8.20
2022-08-25T18:31:28.979Z,8.50
2022-08-25T18:33:57.393Z,8.23
2022-08-25T18:36:25.722Z,8.38
2022-08-25T18:39:13.647Z,8.63
2022-08-25T18:41:45.074Z,8.55
2022-08-25T18:44:15.512Z,8.50
2022-08-25T18:46:45.537Z,8.68
2022-08-25T18:49:17.242Z,8.55
2022-08-25T18:51:46.319Z,8.43
2022-08-25T18:54:23.687Z,8.45
2022-08-25T18:56:53.942Z,8.85
2022-08-25T18:59:23.760Z,8.52
2022-08-25T19:01:53.938Z,8.93
2022-08-25T19:04:28.618Z,8.50
2022-08-25T19:07:01.018Z,8.95
2022-08-25T19:09:31.402Z,8.52
2022-08-25T19:11:59.788Z,8.75
2022-08-25T19:14:28.489Z,8.95
2022-08-25T19:16:58.096Z,8.73
2022-08-25T19:19:26.518Z,8.80
2022-08-25T19:21:54.887Z,8.60
2022-08-25T19:24:23.212Z,8.80
2022-08-25T19:26:54.758Z,8.10
2022-08-25T19:29:24.001Z,8.80
2022-08-25T19:31:53.343Z,8.00
2022-08-25T19:34:28.231Z,8.50
2022-08-25T19:37:00.165Z,8.05
2022-08-25T19:39:28.664Z,7.97
2022-08-25T19:42:00.341Z,8.25
2022-08-25T19:44:31.964Z,8.57
2022-08-25T19:47:00.754Z,8.68
2022-08-25T19:49:32.808Z,8.32
2022-08-25T19:52:02.312Z,8.15
2022-08-25T19:54:35.535Z,8.25
2022-08-25T19:57:07.885Z,8.20
2022-08-25T19:59:43.473Z,7.28
2022-08-25T20:02:15.445Z,7.80
2022-08-25T20:04:49.964Z,8.30
2022-08-25T20:07:20.152Z,8.15
2022-08-25T20:09:49.387Z,8.45
2022-08-25T20:12:20.369Z,7.50
2022-08-25T20:14:50.027Z,7.88
2022-08-25T20:17:24.772Z,7.47
2022-08-25T20:19:57.164Z,9.02
2022-08-25T20:22:27.060Z,8.65
2022-08-25T20:24:58.559Z,9.02
2022-08-25T20:27:33.848Z,9.07
2022-08-25T20:30:03.420Z,8.50
2022-08-25T20:32:32.757Z,9.13
2022-08-25T20:35:01.813Z,8.90
2022-08-25T20:37:30.440Z,9.15
2022-08-25T20:39:59.020Z,8.85
2022-08-25T20:42:29.236Z,8.70
2022-08-25T20:44:58.047Z,8.25
2022-08-25T20:47:26.775Z,8.57
2022-08-25T20:49:55.303Z,8.50
2022-08-25T20:52:23.668Z,8.35
2022-08-25T20:54:52.941Z,8.63
2022-08-25T20:57:24.327Z,7.70
2022-08-25T20:59:56.255Z,8.30
2022-08-25T21:02:25.415Z,8.52
2022-08-25T21:04:54.109Z,8.60
2022-08-25T21:07:26.497Z,8.15
2022-08-25T21:09:56.539Z,7.85
2022-08-25T21:12:25.069Z,8.27
2022-08-25T21:14:56.714Z,8.27
2022-08-25T21:17:25.698Z,8.35
2022-08-25T21:19:54.064Z,8.02
2022-08-25T21:22:22.815Z,7.82
2022-08-25T21:24:51.609Z,8.38
2022-08-25T21:27:20.294Z,7.78
2022-08-25T21:29:55.088Z,8.10
2022-08-25T21:32:25.511Z,7.88
2022-08-25T21:34:54.809Z,8.20
2022-08-25T21:37:23.170Z,8.32
2022-08-25T21:39:51.696Z,8.02
2022-08-25T21:42:21.137Z,8.18
2022-08-25T21:44:50.620Z,8.73
2022-08-25T21:47:20.890Z,8.35
2022-08-25T21:49:50.797Z,8.32
2022-08-25T21:52:19.439Z,8.40
2022-08-25T21:54:47.882Z,7.93
2022-08-25T21:57:19.147Z,8.48
2022-08-25T21:59:52.044Z,8.38
2022-08-25T22:02:23.272Z,8.55
2022-08-25T22:04:56.271Z,8.45
2022-08-25T22:07:24.945Z,7.97
2022-08-25T22:09:55.094Z,8.77
2022-08-25T22:12:25.016Z,9.07
2022-08-25T22:14:53.570Z,9.23
2022-08-25T22:17:24.297Z,8.80
2022-08-25T22:19:54.132Z,8.95
2022-08-25T22:22:24.515Z,8.70
2022-08-25T22:24:53.996Z,9.52
2022-08-25T22:27:23.546Z,8.88
2022-08-25T22:29:52.874Z,8.68
2022-08-25T22:32:21.721Z,8.73
2022-08-25T22:34:50.362Z,8.60
2022-08-25T22:37:19.113Z,9.25
2022-08-25T22:39:48.952Z,9.23
2022-08-25T22:42:18.487Z,9.30
2022-08-25T22:44:46.969Z,9.05
2022-08-25T22:47:17.703Z,9.32
2022-08-25T22:49:46.546Z,9.20
2022-08-25T22:52:16.010Z,9.63
2022-08-25T22:54:44.292Z,9.52
2022-08-25T22:57:14.156Z,8.88
2022-08-25T22:59:42.687Z,9.65
2022-08-25T23:02:11.217Z,9.60
2022-08-25T23:04:41.107Z,9.02
2022-08-25T23:07:12.435Z,9.43
2022-08-25T23:09:40.518Z,9.75
2022-08-25T23:12:11.162Z,9.18
2022-08-25T23:14:42.328Z,9.48
2022-08-25T23:17:12.565Z,9.45
2022-08-25T23:19:40.601Z,9.77
2022-08-25T23:22:10.859Z,9.35
2022-08-25T23:24:42.720Z,10.23
2022-08-25T23:27:13.426Z,9.80
2022-08-25T23:29:45.059Z,9.90
2022-08-25T23:32:14.358Z,9.68
2022-08-25T23:34:43.878Z,9.73
2022-08-25T23:37:18.367Z,9.63
2022-08-25T23:39:49.651Z,8.75
2022-08-25T23:42:19.276Z,9.00
2022-08-25T23:44:49.046Z,9.98
2022-08-25T23:47:17.437Z,9.43
2022-08-25T23:49:45.840Z,9.45
2022-08-25T23:52:17.187Z,10.45
2022-08-25T23:54:45.769Z,10.23
2022-08-25T23:57:13.805Z,9.25
2022-08-25T23:59:43.286Z,10.35
